Darstellungsparameter: Aktuell verwendete Einstellungen:
Skalierung der Graphiken ... ?
xyx+y,   Skalierungsfaktor:      Skalierung: Modus: x, Faktor: 1
Darstellungszeitraum ... ?
Vom - - bis: - -   Zeitraum: 27.09.2007 - 28.09.2007
Min/Max/Avg-Anzeige ... ?
Zeige MMA aktuell
Zeige MMA Monat
Zeige MMA alles
Zeige --A aktuell
Zeige --A Monat
Zeige --A alles
Keine MMA-Anzeige
MMA:
Average (ber die Originaldaten)
MMA-Basis: 27.09.2007 - 28.09.2007
Quicknavigation für Darstellung... ?
Tage:      1T, 2T, 3T, 5T -1T -2T -3T -5T +1T +2T +3T +5T
Wochen: 1W, 2W, 3W -1W -2W -3W +1W +2W +3W
Monate: 1M, 3M, 6M -1M -3M -6M +1M +3M +6M
Jahre:    1J, 3J, 5J, 10J -1J -3J -5J -10J +1J +3J +5J +10J
Nutze für die Darstellung ... ?
Originaldaten oder Mittelwerte auf ...
Stundenbasis Tagesbasis Wochenbasis
Monatsbasis Jahresbasis      Datenbasis: Original-Daten
Darstellen als:
Statistik (Auto) Statistik J:M      Darstellung:
Zur Graphik,    zurück zur Übersicht aller Sensoren.
 
Tabellarische Datenbersicht: ?
 
Sensor: Nr:Datum:Temp:Abs-Feuchte:Windchill:Wind:
Aussen-T/F 1 27-09-2007 00:10:02 9.5 C 8.1 g/m*3 9.5 C 0 km/h
2 27-09-2007 00:22:02 9.5 C 8.1 g/m*3 9.5 C 0 km/h
3 27-09-2007 00:34:02 9.6 C 8.15 g/m*3 9.6 C 0 km/h
4 27-09-2007 00:46:02 9.6 C 8.15 g/m*3 9.6 C 0 km/h
5 27-09-2007 00:58:02 9.7 C 8.2 g/m*3 9.7 C 0 km/h
6 27-09-2007 01:10:02 9.7 C 8.2 g/m*3 9.7 C 0 km/h
7 27-09-2007 01:22:01 9.8 C 8.26 g/m*3 9.8 C 0 km/h
8 27-09-2007 01:34:02 9.9 C 8.31 g/m*3 9.9 C 0 km/h
9 27-09-2007 01:46:01 10.1 C 8.32 g/m*3 10.1 C 0 km/h
10 27-09-2007 01:58:02 10.1 C 8.23 g/m*3 10.1 C 0 km/h
11 27-09-2007 02:10:01 9.9 C 8.22 g/m*3 9.9 C 0 km/h
12 27-09-2007 02:22:02 9.9 C 8.22 g/m*3 9.9 C 0 km/h
13 27-09-2007 02:34:02 9.8 C 8.16 g/m*3 9.8 C 0 km/h
14 27-09-2007 02:47:08 9.8 C 8.16 g/m*3 9.8 C 0 km/h
15 27-09-2007 02:59:08 9.8 C 8.16 g/m*3 9.8 C 0 km/h
16 27-09-2007 03:11:09 9.7 C 8.11 g/m*3 9.7 C 0 km/h
17 27-09-2007 03:23:09 9.6 C 8.06 g/m*3 9.6 C 0 km/h
18 27-09-2007 03:35:02 9.6 C 8.06 g/m*3 9.6 C 0 km/h
19 27-09-2007 03:47:02 9.6 C 8.06 g/m*3 9.6 C 0 km/h
20 27-09-2007 03:59:02 9.6 C 8.06 g/m*3 9.6 C 0 km/h
21 27-09-2007 04:11:02 9.6 C 8.06 g/m*3 9.6 C 0 km/h
22 27-09-2007 04:23:02 9.5 C 8.1 g/m*3 9.5 C 0 km/h
23 27-09-2007 04:35:03 9.4 C 8.05 g/m*3 9.4 C 0 km/h
24 27-09-2007 04:47:03 9.3 C 8 g/m*3 9.3 C 0 km/h
25 27-09-2007 04:59:03 9.3 C 8.09 g/m*3 9.3 C 0 km/h
Sensor: Nr:Datum:Temp:Abs-Feuchte:Windchill:Wind:
Aussen-T/F 26 27-09-2007 05:11:02 9.3 C 8.18 g/m*3 9.3 C 0 km/h
27 27-09-2007 05:23:03 9.2 C 8.13 g/m*3 9.2 C 0 km/h
28 27-09-2007 05:35:02 9.3 C 8.18 g/m*3 9.3 C 0 km/h
29 27-09-2007 05:47:02 9.3 C 8.18 g/m*3 9.3 C 0 km/h
30 27-09-2007 05:59:03 9.2 C 8.13 g/m*3 9.2 C 0 km/h
31 27-09-2007 06:11:02 9.2 C 8.22 g/m*3 9.2 C 0 km/h
32 27-09-2007 06:23:03 9.2 C 8.22 g/m*3 9.2 C 0 km/h
33 27-09-2007 06:35:02 9.2 C 8.22 g/m*3 9.2 C 0 km/h
34 27-09-2007 06:47:02 9.2 C 8.22 g/m*3 9.2 C 0 km/h
35 27-09-2007 06:59:02 9.2 C 8.22 g/m*3 9.2 C 0 km/h
36 27-09-2007 07:11:01 9.2 C 8.22 g/m*3 9.2 C 0 km/h
37 27-09-2007 07:23:02 9.3 C 8.27 g/m*3 9.3 C 0 km/h
38 27-09-2007 07:35:02 9.2 C 8.3 g/m*3 9.2 C 0 km/h
39 27-09-2007 07:47:02 9.2 C 8.3 g/m*3 9.2 C 0 km/h
40 27-09-2007 07:59:02 9.3 C 8.36 g/m*3 9.3 C 0 km/h
41 27-09-2007 08:11:02 9.4 C 8.41 g/m*3 9.4 C 0 km/h
42 27-09-2007 08:23:02 9.4 C 8.41 g/m*3 9.4 C 0 km/h
43 27-09-2007 08:35:02 9.4 C 8.41 g/m*3 9.4 C 0 km/h
44 27-09-2007 08:47:02 9.4 C 8.41 g/m*3 9.4 C 0 km/h
45 27-09-2007 08:59:02 9.5 C 8.47 g/m*3 9.5 C 0 km/h
46 27-09-2007 09:11:02 9.5 C 8.47 g/m*3 9.5 C 0 km/h
47 27-09-2007 09:23:03 9.5 C 8.47 g/m*3 9.5 C 0 km/h
48 27-09-2007 09:35:02 9.5 C 8.56 g/m*3 9.5 C 0 km/h
49 27-09-2007 09:47:02 9.5 C 8.56 g/m*3 9.5 C 0 km/h
50 27-09-2007 09:59:02 9.5 C 8.56 g/m*3 9.5 C 0 km/h
Sensor: Nr:Datum:Temp:Abs-Feuchte:Windchill:Wind:
Aussen-T/F 51 27-09-2007 10:11:01 9.6 C 8.61 g/m*3 9.6 C 0 km/h
52 27-09-2007 10:23:02 9.5 C 8.56 g/m*3 9.5 C 0 km/h
53 27-09-2007 10:35:02 9.6 C 8.61 g/m*3 9.6 C 0 km/h
54 27-09-2007 10:47:02 9.7 C 8.67 g/m*3 9.7 C 0 km/h
55 27-09-2007 10:59:02 9.7 C 8.67 g/m*3 9.7 C 0 km/h
56 27-09-2007 11:11:02 9.8 C 8.81 g/m*3 9.8 C 0 km/h
57 27-09-2007 11:23:02 9.9 C 8.87 g/m*3 9.9 C 0 km/h
58 27-09-2007 11:35:02 10 C 8.83 g/m*3 10 C 0 km/h
59 27-09-2007 11:47:02 9.9 C 8.87 g/m*3 9.9 C 0 km/h
60 27-09-2007 11:59:02 10.1 C 8.89 g/m*3 10.1 C 0 km/h
61 27-09-2007 12:11:02 10.1 C 8.89 g/m*3 10.1 C 0 km/h
62 27-09-2007 12:23:02 10.1 C 8.89 g/m*3 10.1 C 0 km/h
63 27-09-2007 12:35:02 10.2 C 9.04 g/m*3 10.2 C 0 km/h
64 27-09-2007 12:47:02 10.2 C 9.04 g/m*3 10.2 C 0 km/h
65 27-09-2007 12:59:02 10.2 C 9.04 g/m*3 10.2 C 0 km/h
66 27-09-2007 13:11:02 10.3 C 9.1 g/m*3 10.3 C 0 km/h
67 27-09-2007 13:23:02 10.3 C 9.1 g/m*3 10.3 C 0 km/h
68 27-09-2007 13:35:01 10.4 C 9.16 g/m*3 10.4 C 0 km/h
69 27-09-2007 13:47:02 10.4 C 9.16 g/m*3 10.4 C 0 km/h
70 27-09-2007 13:59:02 10.5 C 9.21 g/m*3 10.5 C 0 km/h
71 27-09-2007 14:11:02 10.6 C 9.27 g/m*3 10.6 C 0 km/h
72 27-09-2007 14:23:02 10.7 C 9.33 g/m*3 10.7 C 0 km/h
73 27-09-2007 14:35:02 10.7 C 9.33 g/m*3 10.7 C 0 km/h
74 27-09-2007 14:47:02 10.7 C 9.33 g/m*3 10.7 C 0 km/h
75 27-09-2007 14:59:02 10.8 C 9.39 g/m*3 10.8 C 0 km/h
Sensor: Nr:Datum:Temp:Abs-Feuchte:Windchill:Wind:
Aussen-T/F 76 27-09-2007 15:11:01 10.8 C 9.39 g/m*3 10.8 C 0 km/h
77 27-09-2007 15:23:01 10.9 C 9.45 g/m*3 10.9 C 0 km/h
78 27-09-2007 15:35:02 11 C 9.51 g/m*3 11 C 0 km/h
79 27-09-2007 15:47:02 11 C 9.51 g/m*3 11 C 0 km/h
80 27-09-2007 15:59:02 11 C 9.51 g/m*3 11 C 0 km/h
81 27-09-2007 16:11:01 11 C 9.51 g/m*3 11 C 0 km/h
82 27-09-2007 16:23:02 11.1 C 9.57 g/m*3 11.1 C 0 km/h
83 27-09-2007 16:35:02 11.1 C 9.57 g/m*3 11.1 C 0 km/h
84 27-09-2007 16:47:02 11.1 C 9.57 g/m*3 11.1 C 0 km/h
85 27-09-2007 16:59:03 11.1 C 9.57 g/m*3 11.1 C 0 km/h
86 27-09-2007 17:11:02 11.1 C 9.57 g/m*3 11.1 C 0 km/h
87 27-09-2007 17:23:02 11.1 C 9.57 g/m*3 11.1 C 0 km/h
88 27-09-2007 17:35:04 11.1 C 9.57 g/m*3 11.1 C 0 km/h
89 27-09-2007 17:47:02 11.1 C 9.57 g/m*3 11.1 C 0 km/h
90 27-09-2007 17:59:02 11.1 C 9.57 g/m*3 11.1 C 0 km/h
91 27-09-2007 18:11:02 11 C 9.51 g/m*3 11 C 0 km/h
92 27-09-2007 18:23:01 11 C 9.51 g/m*3 11 C 0 km/h
93 27-09-2007 18:35:02 11 C 9.51 g/m*3 11 C 0 km/h
94 27-09-2007 18:47:03 11 C 9.51 g/m*3 11 C 0 km/h
95 27-09-2007 18:59:03 11 C 9.51 g/m*3 11 C 0 km/h
96 27-09-2007 19:11:02 11 C 9.51 g/m*3 11 C 0 km/h
97 27-09-2007 19:23:02 11 C 9.51 g/m*3 11 C 0 km/h
98 27-09-2007 19:35:02 11 C 9.51 g/m*3 11 C 0 km/h
99 27-09-2007 19:47:02 11 C 9.51 g/m*3 11 C 0 km/h
100 27-09-2007 19:59:02 11 C 9.51 g/m*3 11 C 0 km/h
Sensor: Nr:Datum:Temp:Abs-Feuchte:Windchill:Wind:
Aussen-T/F 101 27-09-2007 20:11:03 11 C 9.51 g/m*3 11 C 0 km/h
102 27-09-2007 20:23:03 11 C 9.51 g/m*3 11 C 0 km/h
103 27-09-2007 20:35:02 11 C 9.51 g/m*3 11 C 0 km/h
104 27-09-2007 20:47:01 11 C 9.51 g/m*3 11 C 0 km/h
105 27-09-2007 20:59:01 11 C 9.51 g/m*3 11 C 0 km/h
106 27-09-2007 21:11:01 11 C 9.51 g/m*3 11 C 0 km/h
107 27-09-2007 21:23:02 11 C 9.51 g/m*3 11 C 0 km/h
108 27-09-2007 21:35:01 11 C 9.51 g/m*3 11 C 0 km/h
109 27-09-2007 21:47:02 11 C 9.51 g/m*3 11 C 0 km/h
110 27-09-2007 21:59:02 10.9 C 9.45 g/m*3 10.9 C 0 km/h
111 27-09-2007 22:11:02 10.8 C 9.39 g/m*3 10.8 C 0 km/h
112 27-09-2007 22:23:02 10.8 C 9.39 g/m*3 10.8 C 0 km/h
113 27-09-2007 22:35:02 10.8 C 9.39 g/m*3 10.8 C 0 km/h
114 27-09-2007 22:47:02 10.8 C 9.39 g/m*3 10.8 C 0 km/h
115 27-09-2007 22:59:02 10.8 C 9.39 g/m*3 10.8 C 0 km/h
116 27-09-2007 23:11:01 10.9 C 9.45 g/m*3 10.9 C 0 km/h
117 27-09-2007 23:23:01 10.9 C 9.45 g/m*3 10.9 C 0 km/h
118 27-09-2007 23:35:02 10.9 C 9.45 g/m*3 10.9 C 0 km/h
119 27-09-2007 23:47:02 10.9 C 9.45 g/m*3 10.9 C 0 km/h
120 27-09-2007 23:59:02 10.8 C 9.39 g/m*3 10.8 C 0 km/h
121 28-09-2007 00:11:02 10.8 C 9.39 g/m*3 10.8 C 0 km/h
122 28-09-2007 00:23:03 10.8 C 9.39 g/m*3 10.8 C 0 km/h
123 28-09-2007 00:35:03 10.8 C 9.39 g/m*3 10.8 C 0 km/h
124 28-09-2007 00:47:03 10.8 C 9.39 g/m*3 10.8 C 0 km/h
125 28-09-2007 00:59:03 10.8 C 9.39 g/m*3 10.8 C 0 km/h
Sensor: Nr:Datum:Temp:Abs-Feuchte:Windchill:Wind:
Aussen-T/F 126 28-09-2007 01:11:02 10.8 C 9.39 g/m*3 10.8 C 0 km/h
127 28-09-2007 01:23:03 10.7 C 9.33 g/m*3 10.7 C 0 km/h
128 28-09-2007 01:35:03 10.7 C 9.33 g/m*3 10.7 C 0 km/h
129 28-09-2007 01:47:02 10.6 C 9.27 g/m*3 10.6 C 0 km/h
130 28-09-2007 01:59:02 10.6 C 9.27 g/m*3 10.6 C 0 km/h
131 28-09-2007 02:11:02 10.6 C 9.27 g/m*3 10.6 C 0 km/h
132 28-09-2007 02:23:02 10.6 C 9.27 g/m*3 10.6 C 0 km/h
133 28-09-2007 02:35:02 10.6 C 9.27 g/m*3 10.6 C 0 km/h
134 28-09-2007 02:48:03 10.7 C 9.33 g/m*3 10.7 C 0 km/h
135 28-09-2007 03:00:03 10.7 C 9.33 g/m*3 10.7 C 0 km/h
136 28-09-2007 03:12:03 10.8 C 9.39 g/m*3 10.8 C 0 km/h
137 28-09-2007 03:24:03 10.9 C 9.45 g/m*3 10.9 C 0 km/h
138 28-09-2007 03:36:03 10.9 C 9.45 g/m*3 10.9 C 0 km/h
139 28-09-2007 03:48:03 10.9 C 9.45 g/m*3 10.9 C 0 km/h
140 28-09-2007 04:00:03 10.9 C 9.45 g/m*3 10.9 C 0 km/h
141 28-09-2007 04:12:03 10.9 C 9.45 g/m*3 10.9 C 0 km/h
142 28-09-2007 04:24:03 10.8 C 9.39 g/m*3 10.8 C 0 km/h
143 28-09-2007 04:36:02 10.7 C 9.33 g/m*3 10.7 C 0 km/h
144 28-09-2007 04:48:02 10.8 C 9.39 g/m*3 10.8 C 0 km/h
145 28-09-2007 05:00:02 10.8 C 9.39 g/m*3 10.8 C 0 km/h
146 28-09-2007 05:12:02 10.8 C 9.39 g/m*3 10.8 C 0 km/h
147 28-09-2007 05:24:02 10.8 C 9.39 g/m*3 10.8 C 0 km/h
148 28-09-2007 05:36:02 10.8 C 9.39 g/m*3 10.8 C 0 km/h
149 28-09-2007 05:48:02 10.8 C 9.39 g/m*3 10.8 C 0 km/h
150 28-09-2007 06:00:02 10.8 C 9.39 g/m*3 10.8 C 0 km/h
Sensor: Nr:Datum:Temp:Abs-Feuchte:Windchill:Wind:
Aussen-T/F 151 28-09-2007 06:12:01 10.7 C 9.33 g/m*3 10.7 C 0 km/h
152 28-09-2007 06:24:01 10.7 C 9.33 g/m*3 10.7 C 0 km/h
153 28-09-2007 06:36:02 10.7 C 9.33 g/m*3 10.7 C 0 km/h
154 28-09-2007 06:48:02 10.8 C 9.39 g/m*3 10.8 C 0 km/h
155 28-09-2007 07:00:02 10.8 C 9.39 g/m*3 10.8 C 0 km/h
156 28-09-2007 07:12:02 10.7 C 9.33 g/m*3 10.7 C 0 km/h
157 28-09-2007 07:24:02 10.7 C 9.33 g/m*3 10.7 C 0 km/h
158 28-09-2007 07:36:03 10.6 C 9.27 g/m*3 10.6 C 0 km/h
159 28-09-2007 07:48:01 10.5 C 9.21 g/m*3 10.5 C 0 km/h
160 28-09-2007 08:00:01 10.4 C 9.16 g/m*3 10.4 C 0 km/h
161 28-09-2007 08:12:02 10.5 C 9.21 g/m*3 10.5 C 0 km/h
162 28-09-2007 08:24:02 10.6 C 9.27 g/m*3 10.6 C 0 km/h
163 28-09-2007 08:36:01 10.7 C 9.33 g/m*3 10.7 C 0 km/h
164 28-09-2007 08:48:01 10.8 C 9.39 g/m*3 10.8 C 0 km/h
165 28-09-2007 09:00:01 11 C 9.51 g/m*3 11 C 0 km/h
166 28-09-2007 09:12:02 11.1 C 9.57 g/m*3 11.1 C 0 km/h
167 28-09-2007 09:24:02 11.2 C 9.63 g/m*3 11.2 C 0 km/h
168 28-09-2007 09:36:01 11.2 C 9.63 g/m*3 11.2 C 0 km/h
169 28-09-2007 09:48:01 11.2 C 9.63 g/m*3 11.2 C 0 km/h
170 28-09-2007 10:00:01 11.2 C 9.63 g/m*3 11.2 C 0 km/h
171 28-09-2007 10:12:02 11.4 C 9.75 g/m*3 11.4 C 0 km/h
172 28-09-2007 10:24:02 11.6 C 9.87 g/m*3 11.6 C 0 km/h
173 28-09-2007 10:36:01 12.2 C 9.93 g/m*3 12.2 C 0 km/h
174 28-09-2007 10:48:02 12.5 C 9.78 g/m*3 12.5 C 0 km/h
175 28-09-2007 11:00:02 12.6 C 9.07 g/m*3 12.6 C 0 km/h
Sensor: Nr:Datum:Temp:Abs-Feuchte:Windchill:Wind:
Aussen-T/F 176 28-09-2007 11:12:01 12.8 C 8.85 g/m*3 12.8 C 0 km/h
177 28-09-2007 11:24:02 13.3 C 8.43 g/m*3 13.3 C 0 km/h
178 28-09-2007 11:36:02 13.6 C 8.83 g/m*3 13.6 C 0 km/h
179 28-09-2007 11:48:02 13.9 C 8.99 g/m*3 13.9 C 0 km/h
180 28-09-2007 12:00:02 13.5 C 8.3 g/m*3 13.5 C 0 km/h
181 28-09-2007 12:12:02 14.2 C 8.43 g/m*3 14.2 C 0 km/h
182 28-09-2007 12:24:02 14.5 C 8.21 g/m*3 14.5 C 0 km/h
183 28-09-2007 12:36:03 14.4 C 8.03 g/m*3 14.4 C 0 km/h
184 28-09-2007 12:48:02 14.3 C 7.62 g/m*3 14.3 C 0 km/h
185 28-09-2007 13:00:02 14.3 C 7.99 g/m*3 14.3 C 0 km/h
186 28-09-2007 13:12:02 14.8 C 8.23 g/m*3 14.8 C 0 km/h
187 28-09-2007 13:24:02 15 C 8.08 g/m*3 15 C 0 km/h
188 28-09-2007 13:36:02 15.1 C 8.13 g/m*3 15.1 C 0 km/h
189 28-09-2007 13:48:02 15.1 C 7.87 g/m*3 15.1 C 0 km/h
190 28-09-2007 14:00:02 15.2 C 7.79 g/m*3 15.2 C 0 km/h
191 28-09-2007 14:12:02 15.7 C 7.76 g/m*3 15.7 C 0 km/h
192 28-09-2007 14:24:03 16 C 7.36 g/m*3 16 C 0 km/h
193 28-09-2007 14:36:03 16 C 7.22 g/m*3 16 C 0 km/h
194 28-09-2007 14:48:02 16 C 7.22 g/m*3 16 C 0 km/h
195 28-09-2007 15:00:02 16 C 7.49 g/m*3 16 C 0 km/h
196 28-09-2007 15:12:02 16.1 C 7.4 g/m*3 16.1 C 0 km/h
197 28-09-2007 15:24:02 16.3 C 7.08 g/m*3 16.3 C 0 km/h
198 28-09-2007 15:36:02 16.5 C 6.88 g/m*3 16.5 C 0 km/h
199 28-09-2007 15:48:02 16.6 C 6.92 g/m*3 16.6 C 0 km/h
200 28-09-2007 16:00:02 16.6 C 6.92 g/m*3 16.6 C 0 km/h
Sensor: Nr:Datum:Temp:Abs-Feuchte:Windchill:Wind:
Aussen-T/F 201 28-09-2007 16:12:03 16.6 C 7.06 g/m*3 16.6 C 0 km/h
202 28-09-2007 16:24:02 16.3 C 7.21 g/m*3 16.3 C 0 km/h
203 28-09-2007 16:36:02 15.6 C 6.78 g/m*3 15.6 C 0 km/h
204 28-09-2007 16:48:01 15.4 C 7.09 g/m*3 15.4 C 0 km/h
205 28-09-2007 17:00:01 15.1 C 7.87 g/m*3 15.1 C 0 km/h
206 28-09-2007 17:12:01 14.7 C 8.44 g/m*3 14.7 C 0 km/h
207 28-09-2007 17:24:02 14.5 C 8.58 g/m*3 14.5 C 0 km/h
208 28-09-2007 17:36:01 14.1 C 8.5 g/m*3 14.1 C 0 km/h
209 28-09-2007 17:48:02 13.9 C 8.51 g/m*3 13.9 C 0 km/h
210 28-09-2007 18:00:02 13.7 C 8.41 g/m*3 13.7 C 0 km/h
211 28-09-2007 18:12:01 13.6 C 8.47 g/m*3 13.6 C 0 km/h
212 28-09-2007 18:24:02 13.5 C 8.3 g/m*3 13.5 C 0 km/h
213 28-09-2007 18:36:02 13.4 C 8.49 g/m*3 13.4 C 0 km/h
214 28-09-2007 18:48:02 13.3 C 8.32 g/m*3 13.3 C 0 km/h
215 28-09-2007 19:00:02 13.2 C 8.27 g/m*3 13.2 C 0 km/h
216 28-09-2007 19:12:02 13.1 C 7.87 g/m*3 13.1 C 0 km/h
217 28-09-2007 19:24:02 12.8 C 7.95 g/m*3 12.8 C 0 km/h
218 28-09-2007 19:36:02 12.8 C 8.06 g/m*3 12.8 C 0 km/h
219 28-09-2007 19:48:02 12.7 C 8.01 g/m*3 12.7 C 0 km/h
220 28-09-2007 20:00:02 12.7 C 7.68 g/m*3 12.7 C 0 km/h
221 28-09-2007 20:12:02 12.6 C 7.63 g/m*3 12.6 C 0 km/h
222 28-09-2007 20:24:02 12.5 C 7.48 g/m*3 12.5 C 0 km/h
223 28-09-2007 20:36:02 12.4 C 7.32 g/m*3 12.4 C 0 km/h
224 28-09-2007 20:48:02 12.4 C 7.32 g/m*3 12.4 C 0 km/h
225 28-09-2007 21:00:02 12.5 C 7.59 g/m*3 12.5 C 0 km/h
Sensor: Nr:Datum:Temp:Abs-Feuchte:Windchill:Wind:
Aussen-T/F 226 28-09-2007 21:12:02 12.3 C 7.49 g/m*3 12.3 C 0 km/h
227 28-09-2007 21:24:02 12.2 C 7.55 g/m*3 12.2 C 0 km/h
228 28-09-2007 21:36:02 12.2 C 7.55 g/m*3 12.2 C 0 km/h
229 28-09-2007 21:48:02 12.2 C 7.66 g/m*3 12.2 C 0 km/h
230 28-09-2007 22:00:02 12.1 C 7.61 g/m*3 12.1 C 0 km/h
231 28-09-2007 22:12:02 12.1 C 7.72 g/m*3 12.1 C 0 km/h
232 28-09-2007 22:24:01 12.1 C 7.83 g/m*3 12.1 C 0 km/h
233 28-09-2007 22:36:01 12.1 C 7.83 g/m*3 12.1 C 0 km/h
234 28-09-2007 22:48:01 12.1 C 7.83 g/m*3 12.1 C 0 km/h
235 28-09-2007 23:00:01 12 C 7.89 g/m*3 12 C 0 km/h
236 28-09-2007 23:12:02 12 C 7.99 g/m*3 12 C 0 km/h
237 28-09-2007 23:24:02 11.9 C 8.05 g/m*3 11.9 C 0 km/h
238 28-09-2007 23:36:01 11.9 C 8.05 g/m*3 11.9 C 0 km/h
239 28-09-2007 23:48:01 11.9 C 8.15 g/m*3 11.9 C 0 km/h

Legende:
   Min
   Max


Maximal/Minimal-Werte vom 27.09.2007 - 28.09.2007

Sensor Min Max Avg
Temp
(Aussen-T/F)
9.2 °C
27-09-2007  05:23:03
16.6 °C
28-09-2007  15:48:02
11.34 °C
Abs-Feuchte
(Aussen-T/F)
6.78 g/m*3
28-09-2007  16:36:02
9.93 g/m*3
28-09-2007  10:36:01
8.68 g/m*3
Windchill
(Aussen-T/F)
9.2 C
27-09-2007  05:23:03
16.6 C
28-09-2007  15:48:02
11.29 C

Die Daten stammen von einer Davis Vantage Pro 2 Wetter-Station und werden unter Linux mit der Software wview2wettercgi und aufbereitet. Alle Angaben erfolgen ohne Gewähr für ihre Vollständigkeit oder Richtigkeit.
Kontakt: Rainer Krienke krienke@uni-koblenz.de . Meine Webseiten an der Uni Koblenz oder privat.
Version: $Revision: 0.78 $